Time;durP1;ratioP1;P1;durP2;ratioP2;P2;SDS_P1;SDS_P2;PMS_P1;PMS_P2;Temp;Humidity;BMP_temperature;BMP_pressure;BME280_temperature;BME280_humidity;BME280_pressure;Samples;Min_cycle;Max_cycle;Signal;HPM_P1;HPM_P2
2021/04/16 00:00:10;;;;;;;4.53;2.60;;;;;;;-1.45;73.20;99899.34;5074025;28;20047;-79
2021/04/16 00:02:36;;;;;;;7.25;3.47;;;;;;;-1.65;73.86;99868.53;5074377;28;20045;-78
2021/04/16 00:05:04;;;;;;;9.47;4.10;;;;;;;-1.62;73.96;99887.00;5073509;28;20409;-78
2021/04/16 00:07:31;;;;;;;8.60;3.83;;;;;;;-1.58;74.13;99887.69;5073232;28;20643;-78
2021/04/16 00:09:58;;;;;;;6.77;3.60;;;;;;;-1.61;73.72;99887.88;5073977;28;20052;-79
2021/04/16 00:12:24;;;;;;;5.57;3.47;;;;;;;-1.49;73.50;99886.28;5073545;28;20110;-79
2021/04/16 00:14:51;;;;;;;4.60;3.67;;;;;;;-1.49;72.96;99872.94;5072817;28;20052;-79
2021/04/16 00:17:17;;;;;;;7.70;3.50;;;;;;;-1.54;73.05;99889.22;5073992;28;20047;-79
2021/04/16 00:19:43;;;;;;;7.67;2.53;;;;;;;-1.74;72.58;99863.72;5073507;28;20056;-79
2021/04/16 00:22:10;;;;;;;8.97;3.00;;;;;;;-1.80;74.40;99886.25;5073955;28;20052;-79
2021/04/16 00:24:44;;;;;;;5.33;2.30;;;;;;;-1.94;74.34;99878.22;5073166;28;20048;-79
2021/04/16 00:27:11;;;;;;;4.30;1.80;;;;;;;-2.03;74.93;99878.72;5073778;28;20105;-79
2021/04/16 00:29:37;;;;;;;2.90;1.80;;;;;;;-1.98;75.11;99872.19;5073214;28;20056;-79
2021/04/16 00:32:04;;;;;;;4.13;2.53;;;;;;;-2.02;75.56;99872.44;5073146;28;20412;-79
2021/04/16 00:34:30;;;;;;;3.03;2.17;;;;;;;-2.22;75.02;99854.94;5072775;28;20060;-79
2021/04/16 00:36:56;;;;;;;4.60;1.67;;;;;;;-2.05;75.23;99859.31;5073595;28;20110;-79
2021/04/16 00:39:24;;;;;;;4.03;2.20;;;;;;;-2.03;74.93;99865.38;5073363;28;20118;-79
2021/04/16 00:41:51;;;;;;;2.13;1.80;;;;;;;-1.97;74.37;99862.41;5072315;28;20076;-79
2021/04/16 00:44:18;;;;;;;3.67;2.20;;;;;;;-1.98;74.32;99863.34;5072156;28;20484;-79
2021/04/16 00:46:48;;;;;;;3.27;2.03;;;;;;;-2.02;74.48;99856.47;5074552;28;20052;-79
2021/04/16 00:49:18;;;;;;;;;;;;;;;-2.00;73.82;99854.59;5073782;28;20048;-79
2021/04/16 00:51:47;;;;;;;1.95;1.77;;;;;;;-2.07;74.27;99859.38;5074932;28;19927;-79
2021/04/16 00:54:17;;;;;;;4.53;2.42;;;;;;;-1.97;73.98;99851.75;5074510;28;20463;-79
2021/04/16 00:56:44;;;;;;;2.92;1.60;;;;;;;-1.97;73.63;99833.09;5040809;28;20041;-79
2021/04/16 00:59:12;;;;;;;3.83;1.90;;;;;;;-2.02;74.51;99840.47;5074818;28;20045;-79
2021/04/16 01:01:38;;;;;;;3.13;2.20;;;;;;;-2.03;74.75;99842.28;5074905;28;20052;-79
2021/04/16 01:04:05;;;;;;;3.80;2.30;;;;;;;-1.98;74.29;99845.53;5074452;28;20121;-79
2021/04/16 01:06:31;;;;;;;2.10;1.90;;;;;;;-2.00;74.30;99847.44;5074462;28;20098;-79
2021/04/16 01:08:58;;;;;;;3.57;2.50;;;;;;;-2.00;73.36;99844.78;5074330;28;20102;-79
2021/04/16 01:11:26;;;;;;;3.63;1.90;;;;;;;-2.14;74.11;99847.34;5073724;28;20071;-79
2021/04/16 01:13:54;;;;;;;4.57;2.40;;;;;;;-2.19;74.26;99828.13;5074759;28;20102;-79
2021/04/16 01:16:28;;;;;;;2.43;1.80;;;;;;;-2.16;74.10;99842.13;5074115;28;20053;-79
2021/04/16 01:18:56;;;;;;;4.67;2.10;;;;;;;-2.11;74.63;99849.00;5074421;28;20207;-79
2021/04/16 01:21:27;;;;;;;2.33;2.10;;;;;;;-2.17;74.42;99840.41;5074533;28;20098;-79
2021/04/16 01:23:59;;;;;;;1.70;1.53;;;;;;;-2.08;74.90;99849.66;5074409;28;20049;-80
2021/04/16 01:26:30;;;;;;;3.03;2.00;;;;;;;-2.19;74.94;99830.78;5073559;28;20052;-79
2021/04/16 01:28:56;;;;;;;1.90;1.53;;;;;;;-2.10;75.16;99845.41;5074175;28;20044;-79
2021/04/16 01:31:25;;;;;;;3.27;2.20;;;;;;;-2.26;75.13;99846.25;5073869;28;20055;-79
2021/04/16 01:33:52;;;;;;;2.67;1.90;;;;;;;-2.28;75.33;99840.16;5073822;28;20056;-79
2021/04/16 01:36:21;;;;;;;2.17;1.90;;;;;;;-2.33;74.86;99834.25;5073141;28;20041;-80
2021/04/16 01:38:48;;;;;;;2.08;1.80;;;;;;;-2.29;74.19;99837.59;5073436;28;20048;-80
2021/04/16 01:41:17;;;;;;;4.13;2.60;;;;;;;-2.33;74.64;99829.75;5073632;28;20436;-80
2021/04/16 01:43:53;;;;;;;3.80;2.40;;;;;;;-2.22;74.45;99834.47;5073590;28;20048;-79
2021/04/16 01:46:21;;;;;;;2.40;1.90;;;;;;;-2.29;75.37;99833.09;5072896;28;20052;-79
2021/04/16 01:48:50;;;;;;;2.97;1.60;;;;;;;-2.37;75.84;99830.88;5072651;28;20045;-79
2021/04/16 01:51:22;;;;;;;3.03;1.50;;;;;;;-2.39;76.32;99838.09;5071198;28;20074;-79
2021/04/16 01:53:48;;;;;;;2.07;1.87;;;;;;;-2.53;76.41;99828.22;5071677;28;20044;-79
2021/04/16 01:56:16;;;;;;;2.27;1.73;;;;;;;-2.52;76.91;99832.59;5073144;28;20512;-79
2021/04/16 01:58:43;;;;;;;2.80;1.63;;;;;;;-2.49;76.56;99828.91;5073431;28;20140;-79
2021/04/16 02:01:10;;;;;;;3.47;1.67;;;;;;;-2.50;76.67;99828.06;5072981;28;20059;-79
2021/04/16 02:03:36;;;;;;;1.87;1.67;;;;;;;-2.60;77.08;99824.19;5073609;28;20048;-80
2021/04/16 02:06:03;;;;;;;2.77;1.77;;;;;;;-2.63;76.26;99796.88;5073018;28;20051;-80
2021/04/16 02:08:31;;;;;;;3.60;1.70;;;;;;;-2.52;76.86;99818.44;5073374;28;20509;-79
2021/04/16 02:10:57;;;;;;;2.10;1.63;;;;;;;-2.45;76.28;99821.59;5071304;28;20404;-80
2021/04/16 02:13:23;;;;;;;2.33;1.93;;;;;;;-2.52;75.74;99811.28;5072645;28;20060;-80
2021/04/16 02:15:50;;;;;;;2.73;1.87;;;;;;;-2.57;76.01;99812.50;5072268;28;20049;-80
2021/04/16 02:18:16;;;;;;;4.73;1.60;;;;;;;-2.50;75.88;99812.09;5072773;28;20056;-80
2021/04/16 02:20:43;;;;;;;3.80;2.03;;;;;;;-2.52;75.41;99815.75;5072727;28;20110;-80
2021/04/16 02:23:10;;;;;;;12.17;2.03;;;;;;;-2.67;76.00;99809.50;5072465;28;20450;-80
2021/04/16 02:25:36;;;;;;;2.00;1.60;;;;;;;-2.63;75.95;99811.03;5072305;28;20049;-80
2021/04/16 02:28:02;;;;;;;2.30;1.67;;;;;;;-2.75;76.17;99790.44;5072771;28;20052;-80
2021/04/16 02:30:33;;;;;;;2.80;2.03;;;;;;;-2.72;76.67;99817.72;5070833;28;20056;-80
2021/04/16 02:33:00;;;;;;;3.53;1.93;;;;;;;-2.86;76.87;99798.97;5070712;28;20408;-80
2021/04/16 02:35:27;;;;;;;3.27;1.60;;;;;;;-2.80;76.55;99806.66;5070087;28;20040;-80
2021/04/16 02:37:55;;;;;;;3.73;2.13;;;;;;;-2.79;76.98;99818.16;5070494;28;20645;-80
2021/04/16 02:40:24;;;;;;;2.67;2.10;;;;;;;-2.80;77.56;99814.66;5070466;28;20040;-80
2021/04/16 02:42:52;;;;;;;2.13;1.80;;;;;;;-2.86;76.42;99797.19;5055256;28;20044;-80
2021/04/16 02:45:20;;;;;;;2.97;1.87;;;;;;;-2.79;76.11;99812.84;5071640;28;20052;-80
2021/04/16 02:47:46;;;;;;;3.17;2.17;;;;;;;-2.84;76.15;99797.13;5072784;28;20052;-80
2021/04/16 02:50:18;;;;;;;3.00;2.13;;;;;;;-2.81;76.02;99807.59;5071006;28;20067;-80
2021/04/16 02:52:44;;;;;;;3.53;2.10;;;;;;;-2.91;76.78;99801.91;5070307;28;20053;-80
2021/04/16 02:55:11;;;;;;;3.07;2.00;;;;;;;-2.93;76.06;99809.13;5069566;28;20369;-80
2021/04/16 02:57:38;;;;;;;3.40;2.00;;;;;;;-2.88;76.30;99807.06;5070366;28;20127;-80
2021/04/16 03:00:06;;;;;;;4.20;2.10;;;;;;;-2.94;76.33;99815.38;5070139;28;20048;-80
2021/04/16 03:02:32;;;;;;;3.17;2.07;;;;;;;-3.00;76.01;99805.06;5071034;28;20044;-80
2021/04/16 03:04:58;;;;;;;3.23;2.10;;;;;;;-3.07;77.02;99811.66;5071954;28;20045;-80
2021/04/16 03:07:25;;;;;;;2.20;1.70;;;;;;;-3.03;77.06;99810.56;5072726;28;20200;-80
2021/04/16 03:09:51;;;;;;;2.50;1.87;;;;;;;-3.18;77.25;99780.31;5072229;28;20059;-80
2021/04/16 03:12:18;;;;;;;4.03;2.37;;;;;;;-3.09;76.84;99806.41;5070292;28;20106;-80
2021/04/16 03:14:44;;;;;;;2.50;2.00;;;;;;;-3.12;77.36;99805.72;5072070;28;20497;-80
2021/04/16 03:17:10;;;;;;;3.10;1.80;;;;;;;-3.18;77.33;99808.72;5071992;28;20488;-80
2021/04/16 03:19:36;;;;;;;4.37;1.93;;;;;;;-3.18;77.87;99800.75;5072687;28;20052;-80
2021/04/16 03:22:03;;;;;;;4.23;1.60;;;;;;;-3.17;77.43;99781.19;5072379;28;20430;-80
2021/04/16 03:24:30;;;;;;;4.97;1.97;;;;;;;-3.13;77.32;99791.59;5071061;28;20129;-80
2021/04/16 03:26:56;;;;;;;3.73;1.80;;;;;;;-3.28;77.86;99787.94;5072266;28;20052;-80
2021/04/16 03:29:23;;;;;;;2.07;1.80;;;;;;;-3.26;78.31;99796.69;5071718;28;20174;-80
2021/04/16 03:31:49;;;;;;;5.53;2.07;;;;;;;-3.26;77.88;99804.66;5072241;28;20049;-80
2021/04/16 03:34:15;;;;;;;1.90;1.50;;;;;;;-3.30;77.32;99773.00;5071309;28;20064;-79
2021/04/16 03:36:41;;;;;;;3.83;1.90;;;;;;;-3.16;78.41;99805.06;5072321;28;20052;-80
2021/04/16 03:39:08;;;;;;;3.00;2.10;;;;;;;-3.16;78.37;99789.09;5072143;28;20045;-80
2021/04/16 03:41:35;;;;;;;2.33;1.60;;;;;;;-3.29;77.79;99786.22;5072293;28;20748;-80
2021/04/16 03:44:01;;;;;;;2.70;2.10;;;;;;;-3.31;77.82;99772.16;5071917;28;20055;-80
2021/04/16 03:46:27;;;;;;;4.73;2.00;;;;;;;-3.25;77.19;99794.88;5072007;28;20114;-80
2021/04/16 03:48:55;;;;;;;3.70;2.03;;;;;;;-3.42;77.09;99786.03;5070079;28;20056;-80
2021/04/16 03:51:21;;;;;;;2.87;1.77;;;;;;;-3.42;77.37;99774.50;5070222;28;20110;-80
2021/04/16 03:53:47;;;;;;;2.63;1.83;;;;;;;-3.40;78.14;99789.44;5070709;28;20044;-80
2021/04/16 03:56:14;;;;;;;4.57;2.20;;;;;;;-3.40;77.90;99777.97;5071694;28;20052;-80
2021/04/16 03:58:44;;;;;;;5.70;1.80;;;;;;;-3.26;76.79;99788.72;5072311;28;20056;-80
2021/04/16 04:01:11;;;;;;;2.63;1.90;;;;;;;-3.47;77.48;99780.06;5072293;28;20458;-78
2021/04/16 04:03:38;;;;;;;5.00;2.17;;;;;;;-3.32;77.31;99791.69;5072128;28;20056;-80
2021/04/16 04:06:06;;;;;;;3.27;2.17;;;;;;;-3.41;77.56;99784.22;5071285;28;20048;-80
2021/04/16 04:08:32;;;;;;;3.37;1.93;;;;;;;-3.46;78.18;99780.91;5071820;28;20083;-80
2021/04/16 04:10:59;;;;;;;3.13;2.10;;;;;;;-3.43;78.63;99794.94;5069229;28;20078;-81
2021/04/16 04:13:25;;;;;;;2.63;1.80;;;;;;;-3.46;78.79;99800.41;5050975;28;20516;-80
2021/04/16 04:15:52;;;;;;;6.43;2.00;;;;;;;-3.37;78.84;99796.41;5071323;28;20053;-80
2021/04/16 04:18:19;;;;;;;8.20;2.47;;;;;;;-3.42;78.79;99785.13;5072086;28;20052;-81
2021/04/16 04:20:45;;;;;;;2.30;1.80;;;;;;;-3.25;78.37;99792.22;5071800;28;20052;-80
2021/04/16 04:23:11;;;;;;;4.97;2.20;;;;;;;-3.20;77.83;99806.16;5072022;28;20098;-81
2021/04/16 04:25:40;;;;;;;4.60;2.10;;;;;;;-3.38;78.47;99798.19;5074817;28;20094;-81
2021/04/16 04:28:07;;;;;;;3.03;2.00;;;;;;;-3.45;78.02;99780.00;5075365;28;20049;-81
2021/04/16 04:30:35;;;;;;;2.00;1.50;;;;;;;-3.51;78.42;99777.66;5075788;28;20048;-81
2021/04/16 04:33:03;;;;;;;3.00;2.40;;;;;;;-3.36;78.07;99799.91;5055695;28;20060;-81
2021/04/16 04:38:10;;;;;;;4.20;2.20;;;;;;;-3.29;78.06;99796.00;5052111;28;20420;-82
2021/04/16 04:40:37;;;;;;;3.00;1.77;;;;;;;-3.33;78.09;99794.44;5055406;28;20045;-82
2021/04/16 04:43:06;;;;;;;3.70;2.20;;;;;;;-3.41;78.03;99784.22;5055692;28;20128;-82
2021/04/16 04:45:33;;;;;;;5.50;2.33;;;;;;;-3.32;78.41;99802.34;5054922;28;20052;-82
2021/04/16 04:47:59;;;;;;;6.00;2.27;;;;;;;-3.39;78.51;99800.94;5063763;28;20044;-82
2021/04/16 04:50:27;;;;;;;3.20;2.10;;;;;;;-3.22;78.51;99811.53;5074374;28;20132;-82
2021/04/16 04:52:54;;;;;;;2.70;2.03;;;;;;;-3.18;78.17;99808.72;5075398;28;20074;-81
2021/04/16 04:55:23;;;;;;;4.30;1.97;;;;;;;-3.31;78.56;99793.44;5074571;28;20053;-81
2021/04/16 04:57:50;;;;;;;3.53;2.17;;;;;;;-3.03;78.33;99816.75;5075210;28;20051;-82
2021/04/16 05:00:17;;;;;;;3.53;2.40;;;;;;;-3.08;78.59;99809.97;5074951;28;20125;-81
2021/04/16 05:02:46;;;;;;;4.20;2.47;;;;;;;-3.16;78.91;99791.75;5074892;28;20090;-81
2021/04/16 05:05:14;;;;;;;4.43;2.30;;;;;;;-2.81;78.47;99812.06;5074360;28;20102;-81
2021/04/16 05:07:42;;;;;;;3.67;2.77;;;;;;;-2.95;78.58;99803.03;5074577;28;20339;-81
2021/04/16 05:10:09;;;;;;;3.17;2.77;;;;;;;-2.77;79.02;99814.47;5074022;28;20051;-81
2021/04/16 05:12:40;;;;;;;3.00;2.23;;;;;;;-2.78;78.83;99806.56;5072043;28;20081;-81
2021/04/16 05:15:09;;;;;;;3.03;2.50;;;;;;;-2.54;78.45;99826.50;5073578;28;20063;-81
2021/04/16 05:17:35;;;;;;;2.57;2.00;;;;;;;-2.54;78.68;99813.19;5073757;28;20060;-81
2021/04/16 05:20:01;;;;;;;4.37;2.40;;;;;;;-2.42;78.14;99806.31;5073935;28;20059;-81
2021/04/16 05:22:28;;;;;;;4.80;2.83;;;;;;;-2.17;78.36;99821.78;5073811;28;20052;-81
2021/04/16 05:24:55;;;;;;;4.80;2.87;;;;;;;-2.10;78.00;99808.09;5072607;28;20091;-81
2021/04/16 05:27:22;;;;;;;3.50;2.77;;;;;;;-1.84;77.41;99806.56;5074045;28;20071;-80
2021/04/16 05:29:49;;;;;;;4.33;2.70;;;;;;;-1.79;77.83;99810.69;5072288;28;20545;-81
2021/04/16 05:32:15;;;;;;;6.87;3.23;;;;;;;-1.81;77.94;99817.03;5073888;28;20061;-81
2021/04/16 05:34:45;;;;;;;5.37;2.97;;;;;;;-1.56;78.38;99821.78;5073025;28;20041;-80
2021/04/16 05:37:11;;;;;;;3.55;2.58;;;;;;;-1.67;77.46;99802.91;5073205;28;20090;-80
2021/04/16 05:39:38;;;;;;;5.87;2.70;;;;;;;-1.46;77.23;99803.41;5073650;28;20121;-80
2021/04/16 05:42:14;;;;;;;4.93;3.27;;;;;;;-1.34;77.42;99816.03;5073688;28;20076;-81
2021/04/16 05:51:20;;;;;;;9.03;2.90;;;;;;;-1.00;77.78;99813.94;5044724;28;20055;-80
2021/04/16 05:53:48;;;;;;;5.13;3.23;;;;;;;-0.93;77.24;99801.09;5073285;28;20052;-80
2021/04/16 05:56:14;;;;;;;4.70;3.67;;;;;;;-0.46;75.75;99823.06;5073058;28;20550;-81
2021/04/16 05:58:41;;;;;;;4.53;2.80;;;;;;;-0.06;74.31;99810.63;5073669;28;20045;-80
2021/04/16 06:01:09;;;;;;;5.30;2.97;;;;;;;0.32;72.87;99823.25;5073859;28;20068;-81
2021/04/16 06:03:36;;;;;;;5.57;3.47;;;;;;;0.47;71.72;99797.28;5072144;28;20072;-81
2021/04/16 06:06:02;;;;;;;6.70;4.33;;;;;;;0.92;70.79;99799.56;5072879;28;20040;-81
2021/04/16 06:08:28;;;;;;;11.83;4.93;;;;;;;1.27;69.65;99800.72;5072472;28;20046;-82
2021/04/16 06:10:57;;;;;;;6.37;4.50;;;;;;;1.21;69.00;99810.03;5071006;28;20056;-82
2021/04/16 06:13:24;;;;;;;5.30;3.43;;;;;;;1.31;68.25;99824.47;5070687;28;20347;-82
2021/04/16 06:15:52;;;;;;;7.67;4.03;;;;;;;1.07;68.80;99816.38;5071801;28;20669;-82
2021/04/16 06:18:19;;;;;;;12.13;5.67;;;;;;;0.76;69.08;99814.97;5073315;28;20094;-81
2021/04/16 06:20:45;;;;;;;7.83;4.87;;;;;;;0.59;70.46;99826.81;5073216;28;20048;-81
2021/04/16 06:23:15;;;;;;;14.83;5.10;;;;;;;0.59;70.86;99802.75;5073575;28;20129;-81
2021/04/16 06:25:42;;;;;;;6.33;4.20;;;;;;;0.64;71.31;99816.69;5072242;28;20488;-82
2021/04/16 06:28:09;;;;;;;5.00;3.27;;;;;;;0.65;71.56;99818.41;5072892;28;20098;-81
2021/04/16 06:30:39;;;;;;;8.40;3.97;;;;;;;0.60;72.12;99807.13;5072570;28;20060;-81
2021/04/16 06:33:16;;;;;;;9.23;4.30;;;;;;;0.63;71.79;99809.59;5073410;28;20180;-81
2021/04/16 06:35:48;;;;;;;8.97;4.67;;;;;;;0.51;71.34;99797.91;5072676;28;20477;-81
2021/04/16 06:38:16;;;;;;;6.37;4.43;;;;;;;0.67;71.86;99816.47;5070875;28;20078;-81
2021/04/16 06:40:46;;;;;;;8.47;4.37;;;;;;;0.77;70.20;99817.53;5068958;28;20126;-81
2021/04/16 06:43:12;;;;;;;5.75;4.40;;;;;;;0.82;70.03;99806.53;5070378;28;20477;-81
2021/04/16 06:45:39;;;;;;;5.30;4.00;;;;;;;1.01;69.20;99801.59;5069121;28;20049;-80
2021/04/16 06:48:10;;;;;;;5.20;3.67;;;;;;;1.31;68.57;99819.13;5052531;28;20048;-81
2021/04/16 06:50:44;;;;;;;8.40;4.47;;;;;;;1.86;66.57;99803.50;5070338;28;20041;-81
2021/04/16 06:53:18;;;;;;;8.40;4.33;;;;;;;2.06;65.78;99802.06;5070258;28;20150;-81
2021/04/16 06:55:54;;;;;;;6.90;4.00;;;;;;;1.74;65.96;99801.75;5070021;28;20062;-81
2021/04/16 06:58:29;;;;;;;9.00;4.20;;;;;;;1.79;66.03;99793.38;5069968;28;20063;-81
2021/04/16 07:01:10;;;;;;;7.87;3.83;;;;;;;1.81;65.57;99796.78;5070452;28;20059;-81
2021/04/16 07:03:43;;;;;;;5.43;3.88;;;;;;;2.75;63.63;99800.44;5066403;28;20052;-81
2021/04/16 07:06:19;;;;;;;7.22;3.60;;;;;;;3.27;62.52;99806.22;5069655;28;20053;-81
2021/04/16 07:08:55;;;;;;;5.38;3.30;;;;;;;2.89;62.68;99785.91;5065696;28;20048;-81
2021/04/16 07:11:24;;;;;;;9.57;4.03;;;;;;;3.07;63.19;99781.81;5068391;28;20064;-81
2021/04/16 07:13:51;;;;;;;5.18;3.70;;;;;;;3.89;62.29;99802.09;5069736;28;20087;-81
2021/04/16 07:16:19;;;;;;;9.13;4.15;;;;;;;3.86;62.37;99784.38;5069036;28;20071;-81
2021/04/16 07:18:51;;;;;;;9.68;4.32;;;;;;;3.90;61.28;99772.38;5050808;28;20099;-82
2021/04/16 07:21:21;;;;;;;13.55;5.07;;;;;;;4.35;60.87;99790.19;5052943;28;20077;-82
2021/04/16 07:23:51;;;;;;;9.95;5.05;;;;;;;3.89;61.87;99796.72;5050495;28;20457;-81
2021/04/16 07:26:42;;;;;;;7.55;4.45;;;;;;;4.30;61.39;99805.84;5065414;28;20052;-81
2021/04/16 07:29:14;;;;;;;4.43;3.58;;;;;;;4.32;61.18;99808.44;5050110;28;20065;-82
2021/04/16 07:31:47;;;;;;;5.95;4.35;;;;;;;4.44;61.09;99810.06;5063774;28;20052;-81
2021/04/16 07:34:33;;;;;;;6.07;4.32;;;;;;;4.46;60.84;99807.25;5068554;28;20090;-81
2021/04/16 07:37:17;;;;;;;4.90;3.83;;;;;;;4.29;61.57;99806.00;5069832;28;20048;-81
2021/04/16 07:39:50;;;;;;;5.90;3.92;;;;;;;4.12;62.17;99815.47;5070335;28;20044;-81
2021/04/16 07:42:37;;;;;;;8.00;4.15;;;;;;;4.30;61.88;99805.84;5069441;28;20076;-82
2021/04/16 07:45:16;;;;;;;8.15;3.58;;;;;;;4.20;62.96;99807.59;5069983;28;20052;-82
2021/04/16 07:47:45;;;;;;;7.20;3.53;;;;;;;4.30;62.40;99799.63;5069561;28;20496;-81
2021/04/16 07:50:28;;;;;;;4.97;3.05;;;;;;;4.30;62.41;99780.78;5070296;28;20040;-82
2021/04/16 07:52:56;;;;;;;9.20;3.72;;;;;;;4.94;59.96;99794.13;5053508;28;20044;-82
2021/04/16 07:55:30;;;;;;;5.55;3.17;;;;;;;5.11;60.34;99805.28;5071479;28;20060;-81
2021/04/16 07:58:04;;;;;;;8.80;3.58;;;;;;;4.44;62.37;99796.63;5072028;28;20052;-81
2021/04/16 08:00:35;;;;;;;6.68;3.50;;;;;;;4.23;63.07;99802.84;5073737;28;20076;-81
2021/04/16 08:03:23;;;;;;;6.07;3.53;;;;;;;4.26;63.30;99807.13;5073576;28;20135;-81
2021/04/16 08:06:00;;;;;;;5.28;3.78;;;;;;;4.27;63.80;99792.66;5052734;28;20055;-82
2021/04/16 08:08:29;;;;;;;4.40;3.42;;;;;;;4.31;62.67;99788.75;5065223;28;20135;-82
2021/04/16 08:11:10;;;;;;;5.68;3.83;;;;;;;4.77;63.54;99798.28;5071833;28;20060;-82
2021/04/16 08:13:39;;;;;;;8.52;3.45;;;;;;;4.63;61.78;99808.53;5073608;28;20041;-81
2021/04/16 08:16:14;;;;;;;7.40;3.08;;;;;;;4.39;63.45;99810.47;5072136;28;20054;-82
2021/04/16 08:18:41;;;;;;;7.90;3.30;;;;;;;4.17;63.50;99807.88;5073122;28;20052;-81
2021/04/16 08:21:16;;;;;;;7.22;3.42;;;;;;;4.24;63.86;99803.69;5072932;28;20055;-81
2021/04/16 08:23:48;;;;;;;5.35;3.80;;;;;;;4.25;63.81;99808.94;5073564;28;20072;-80
2021/04/16 08:26:16;;;;;;;5.32;3.90;;;;;;;4.28;63.94;99804.31;5072217;28;20052;-79
2021/04/16 08:31:40;;;;;;;6.20;3.80;;;;;;;4.25;64.32;99811.63;4984142;28;20486;-82
2021/04/16 08:34:11;;;;;;;8.98;3.40;;;;;;;3.90;64.75;99815.41;5040605;28;20052;-83
2021/04/16 08:36:40;;;;;;;5.72;3.85;;;;;;;4.10;63.97;99799.47;5060426;28;20098;-83
2021/04/16 08:39:12;;;;;;;5.93;4.10;;;;;;;4.40;63.77;99806.81;5072999;28;20059;-82
2021/04/16 08:41:48;;;;;;;6.63;4.03;;;;;;;4.48;63.62;99784.59;5073936;28;20419;-82
2021/04/16 08:44:15;;;;;;;6.88;3.92;;;;;;;4.77;63.30;99808.19;5074785;28;20524;-82
2021/04/16 08:46:43;;;;;;;7.35;4.38;;;;;;;4.67;62.94;99815.38;5075263;28;20048;-82
2021/04/16 08:49:14;;;;;;;6.53;4.00;;;;;;;4.56;63.23;99783.94;5054430;28;20052;-82
2021/04/16 08:51:44;;;;;;;4.15;3.13;;;;;;;4.57;63.21;99799.97;5070537;28;20405;-82
2021/04/16 08:54:25;;;;;;;5.63;3.75;;;;;;;4.61;63.24;99804.13;5071579;28;20139;-82
2021/04/16 08:56:59;;;;;;;7.18;3.78;;;;;;;4.75;62.22;99794.00;5072556;28;20053;-82
2021/04/16 08:59:28;;;;;;;6.85;3.92;;;;;;;4.59;63.25;99803.41;5072044;28;20048;-82
2021/04/16 09:02:04;;;;;;;6.45;4.13;;;;;;;4.75;62.82;99815.56;5072473;28;20048;-82
2021/04/16 09:04:53;;;;;;;4.43;3.47;;;;;;;4.59;62.66;99808.78;5052433;28;20075;-82
2021/04/16 09:07:34;;;;;;;4.32;3.50;;;;;;;4.55;64.44;99804.66;5054797;28;20085;-82
2021/04/16 09:10:03;;;;;;;5.43;3.72;;;;;;;4.60;63.67;99804.25;5062225;28;20041;-82
2021/04/16 09:12:52;;;;;;;7.38;3.88;;;;;;;4.79;64.36;99801.69;5072678;28;20052;-83
2021/04/16 09:15:39;;;;;;;4.05;3.30;;;;;;;4.89;64.02;99806.28;5072733;28;20041;-83
2021/04/16 09:18:12;;;;;;;6.22;3.40;;;;;;;4.89;62.72;99803.59;5073824;28;20060;-81
2021/04/16 09:21:11;;;;;;;4.80;3.55;;;;;;;5.23;63.08;99811.44;5073740;28;20041;-82
2021/04/16 09:24:13;;;;;;;4.03;3.03;;;;;;;5.43;62.93;99813.22;5024228;28;20203;-81
2021/04/16 09:27:03;;;;;;;6.53;3.90;;;;;;;5.64;62.26;99815.00;4979118;28;20054;-81
2021/04/16 09:29:49;;;;;;;7.57;3.35;;;;;;;5.74;61.13;99790.75;5071208;28;20054;-82
2021/04/16 09:32:42;;;;;;;8.43;3.70;;;;;;;5.83;58.68;99804.25;5072188;28;20048;-81
2021/04/16 09:35:12;;;;;;;6.38;3.38;;;;;;;6.46;59.78;99794.09;5067475;28;20084;-82
2021/04/16 09:37:43;;;;;;;5.78;4.18;;;;;;;6.68;57.71;99785.69;5051596;28;20052;-82
2021/04/16 09:40:29;;;;;;;4.55;3.10;;;;;;;6.58;58.42;99773.19;5063103;28;20049;-81
2021/04/16 09:42:57;;;;;;;4.85;3.30;;;;;;;6.50;58.78;99800.94;5051875;28;20049;-81
2021/04/16 09:45:45;;;;;;;7.55;3.55;;;;;;;6.27;59.81;99806.63;5081742;28;20048;-80
2021/04/16 09:48:24;;;;;;;8.00;3.42;;;;;;;6.10;60.32;99802.78;5086589;28;20053;-81
2021/04/16 09:51:11;;;;;;;5.77;3.43;;;;;;;5.95;61.05;99810.38;5073469;28;20075;-81
2021/04/16 09:53:39;;;;;;;6.20;3.95;;;;;;;5.66;61.14;99800.38;5053855;28;20318;-81
2021/04/16 09:56:16;;;;;;;6.05;3.38;;;;;;;5.43;61.91;99802.41;5077142;28;20052;-81
2021/04/16 09:59:24;;;;;;;5.45;3.08;;;;;;;5.20;61.57;99807.16;5069576;28;20127;-81
2021/04/16 10:02:24;;;;;;;4.28;3.17;;;;;;;5.26;61.76;99805.78;5072443;28;20044;-80
2021/04/16 10:04:55;;;;;;;;;;;;;;;5.13;61.88;99812.25;5082229;28;20101;-81
2021/04/16 10:07:24;;;;;;;5.18;3.55;;;;;;;5.07;63.29;99807.41;5072340;28;19920;-80
2021/04/16 10:10:14;;;;;;;4.75;3.50;;;;;;;4.81;62.51;99790.78;5059170;28;20045;-81
2021/04/16 10:12:42;;;;;;;4.78;3.42;;;;;;;4.91;63.74;99793.56;5072332;28;20057;-81
2021/04/16 10:15:21;;;;;;;4.88;3.10;;;;;;;5.11;64.51;99799.88;5071327;28;20048;-81
2021/04/16 10:17:56;;;;;;;3.73;3.37;;;;;;;5.11;61.71;99794.50;5062564;28;20052;-79
2021/04/16 10:20:24;;;;;;;6.68;3.90;;;;;;;5.14;62.27;99802.31;5079591;28;20040;-81
2021/04/16 10:23:04;;;;;;;4.53;3.65;;;;;;;5.06;63.22;99804.81;5071396;28;20453;-82
2021/04/16 12:38:43;;;;;;;2.47;1.60;;;;;;;6.11;49.97;99761.28;5075002;28;19939;-80
2021/04/16 12:41:32;;;;;;;3.20;1.20;;;;;;;5.71;51.05;99737.06;5065223;28;20500;-80
2021/04/16 12:44:01;;;;;;;1.30;1.20;;;;;;;5.91;51.32;99748.75;5075201;28;20059;-79
2021/04/16 12:46:35;;;;;;;1.27;1.17;;;;;;;5.84;51.19;99749.31;5071185;28;20051;-79
2021/04/16 12:49:01;;;;;;;1.77;1.45;;;;;;;5.95;51.18;99753.72;5067367;28;20053;-79
2021/04/16 12:51:29;;;;;;;1.50;1.40;;;;;;;6.01;51.33;99747.78;5072081;28;20044;-79
2021/04/16 12:53:58;;;;;;;1.67;1.38;;;;;;;5.82;51.12;99747.72;5073869;28;20105;-79
2021/04/16 12:56:32;;;;;;;2.28;1.60;;;;;;;5.89;50.83;99729.16;5078400;28;20044;-79
2021/04/16 12:59:10;;;;;;;1.70;1.27;;;;;;;6.09;50.88;99738.97;5073700;28;20049;-79
2021/04/16 13:01:37;;;;;;;2.08;1.80;;;;;;;6.35;49.44;99743.78;5057496;28;20063;-79
2021/04/16 13:04:03;;;;;;;1.42;1.25;;;;;;;6.21;49.20;99747.78;5071786;28;20056;-80
2021/04/16 13:06:34;;;;;;;1.70;1.50;;;;;;;6.26;50.04;99745.50;5072131;28;20044;-80
2021/04/16 13:09:00;;;;;;;1.60;1.50;;;;;;;6.32;50.18;99734.16;5071900;28;20098;-79
2021/04/16 13:11:28;;;;;;;1.42;1.13;;;;;;;6.56;49.57;99732.81;5071408;28;20044;-79
2021/04/16 13:13:54;;;;;;;3.92;1.50;;;;;;;6.66;48.94;99736.34;5082266;28;20112;-80
2021/04/16 13:16:21;;;;;;;1.30;1.20;;;;;;;6.62;48.98;99739.50;5091278;28;20051;-80
2021/04/16 13:18:50;;;;;;;6.05;1.30;;;;;;;6.53;49.63;99733.97;5083388;28;20102;-80
2021/04/16 13:21:21;;;;;;;1.38;1.27;;;;;;;6.46;49.74;99731.97;5069291;28;20095;-79
2021/04/16 13:23:47;;;;;;;2.55;2.35;;;;;;;6.52;49.60;99734.13;5055053;28;20053;-79
2021/04/16 13:26:14;;;;;;;2.22;2.03;;;;;;;6.59;49.17;99721.72;5071171;28;20057;-79
2021/04/16 13:28:41;;;;;;;3.38;1.70;;;;;;;6.78;49.31;99730.78;5071343;28;20045;-79
2021/04/16 13:31:08;;;;;;;1.95;1.85;;;;;;;6.92;49.97;99730.31;5086483;28;20059;-80
2021/04/16 13:33:41;;;;;;;2.08;1.75;;;;;;;6.94;47.38;99720.22;5079614;28;20072;-80
2021/04/16 13:36:15;;;;;;;2.17;1.40;;;;;;;6.76;48.66;99719.25;5081898;28;20051;-80
2021/04/16 13:38:41;;;;;;;1.92;1.60;;;;;;;6.83;47.55;99728.47;5070879;28;20045;-79
2021/04/16 13:41:08;;;;;;;2.08;1.88;;;;;;;6.75;48.24;99720.28;5072011;28;20048;-79
2021/04/16 13:43:37;;;;;;;2.17;1.60;;;;;;;6.75;47.87;99718.41;5071891;28;20040;-79
2021/04/16 13:46:07;;;;;;;1.98;1.35;;;;;;;6.68;48.78;99709.19;5070105;28;20059;-79
2021/04/16 13:48:34;;;;;;;1.85;1.52;;;;;;;6.78;49.28;99712.72;5074647;28;20089;-79
2021/04/16 13:51:00;;;;;;;1.38;1.27;;;;;;;6.76;50.04;99703.91;5075388;28;20052;-79
2021/04/16 13:53:27;;;;;;;5.82;1.60;;;;;;;6.54;49.90;99703.25;5071630;28;20507;-79
2021/04/16 13:55:53;;;;;;;4.80;1.50;;;;;;;6.54;50.27;99705.09;5076139;28;20059;-80
2021/04/16 13:58:20;;;;;;;1.65;1.40;;;;;;;6.49;49.87;99699.28;5091645;28;20052;-79
2021/04/16 14:00:46;;;;;;;2.10;1.30;;;;;;;6.34;50.26;99698.91;5088410;28;20106;-79
2021/04/16 14:03:25;;;;;;;11.45;2.38;;;;;;;6.30;50.55;99697.47;5073533;28;20078;-79
2021/04/16 14:05:54;;;;;;;4.45;2.00;;;;;;;6.12;51.38;99691.94;5071731;28;20067;-79
2021/04/16 14:08:28;;;;;;;1.40;1.27;;;;;;;6.12;51.40;99690.09;5070605;28;20044;-79
2021/04/16 14:10:55;;;;;;;2.28;1.92;;;;;;;6.09;50.96;99701.19;5070190;28;20109;-78
2021/04/16 14:13:22;;;;;;;10.20;3.30;;;;;;;6.07;51.13;99689.69;5070221;28;20049;-79
2021/04/16 14:15:51;;;;;;;3.10;2.08;;;;;;;6.08;51.78;99682.44;5070480;28;20056;-79
2021/04/16 14:18:27;;;;;;;2.00;1.80;;;;;;;6.03;52.37;99702.59;5085700;28;20507;-78